DAL1875 KLAX-MMSD
Flight info
| Callsign | DAL1875 |
|---|---|
| Flight time | N/A |
| Altitude | 35000 |
| Route | PNDAH2 OTAYY DCT TIJ J1 LTO DCT ENEKO ENEKO1A |
| Aircraft | B739/M-SDE2E3FGHIRWXY/LB1 |
Departure
| Time | N/A |
|---|---|
| Airport | Los Angeles International Airport (KLAX) |
Arrival
| Time | 2026-04-24 19:37 |
|---|---|
| Airport | Los Cabos International Airport (MMSD) |
| Time | Latitude | Longitude | Altitude | Speed | Heading |
|---|---|---|---|---|---|
| 2026-04-24 18:54 | 26.66733 | -112.22758 | 34965 ft | 504 kts | 139° |
| 2026-04-24 18:55 | 26.59856 | -112.13872 | 34969 ft | 503 kts | 139° |
| 2026-04-24 18:56 | 26.55276 | -112.07965 | 34955 ft | 502 kts | 139° |
| 2026-04-24 18:56 | 26.50698 | -112.02068 | 34958 ft | 501 kts | 139° |
| 2026-04-24 18:57 | 26.46131 | -111.96210 | 34955 ft | 500 kts | 139° |
| 2026-04-24 18:57 | 26.41595 | -111.90397 | 34973 ft | 499 kts | 139° |
| 2026-04-24 18:58 | 26.37032 | -111.84556 | 34970 ft | 500 kts | 139° |
| 2026-04-24 18:58 | 26.32460 | -111.78711 | 34956 ft | 500 kts | 139° |
| 2026-04-24 18:59 | 26.27874 | -111.72854 | 34966 ft | 502 kts | 139° |
| 2026-04-24 18:59 | 26.23350 | -111.67083 | 34972 ft | 502 kts | 139° |
| 2026-04-24 19:00 | 26.18752 | -111.61224 | 34980 ft | 502 kts | 139° |
| 2026-04-24 19:00 | 26.14157 | -111.55376 | 34980 ft | 501 kts | 139° |
| 2026-04-24 19:01 | 26.09564 | -111.49539 | 34966 ft | 501 kts | 139° |
| 2026-04-24 19:01 | 26.04975 | -111.43715 | 34980 ft | 501 kts | 139° |
| 2026-04-24 19:02 | 26.01158 | -111.38876 | 35054 ft | 501 kts | 139° |
| 2026-04-24 19:02 | 25.95754 | -111.32108 | 35053 ft | 499 kts | 141° |
| 2026-04-24 19:03 | 25.90988 | -111.26519 | 35048 ft | 497 kts | 142° |
| 2026-04-24 19:03 | 25.86228 | -111.21013 | 34994 ft | 497 kts | 142° |
| 2026-04-24 19:04 | 25.81457 | -111.15455 | 34991 ft | 497 kts | 141° |
| 2026-04-24 19:04 | 25.76698 | -111.09883 | 34972 ft | 497 kts | 141° |
| 2026-04-24 19:05 | 25.71947 | -111.04319 | 34954 ft | 497 kts | 141° |
| 2026-04-24 19:05 | 25.67196 | -110.98763 | 34951 ft | 496 kts | 141° |
| 2026-04-24 19:06 | 25.62446 | -110.93217 | 34951 ft | 496 kts | 141° |
| 2026-04-24 19:06 | 25.57720 | -110.87706 | 34949 ft | 495 kts | 141° |
| 2026-04-24 19:07 | 25.52978 | -110.82183 | 34944 ft | 494 kts | 141° |
| 2026-04-24 19:07 | 25.49042 | -110.77604 | 34949 ft | 493 kts | 141° |
| 2026-04-24 19:08 | 25.43514 | -110.71181 | 34953 ft | 493 kts | 141° |
| 2026-04-24 19:08 | 25.38782 | -110.65690 | 34956 ft | 492 kts | 141° |
| 2026-04-24 19:09 | 25.34056 | -110.60214 | 34941 ft | 491 kts | 141° |
| 2026-04-24 19:09 | 25.29340 | -110.54755 | 34947 ft | 491 kts | 141° |
| 2026-04-24 19:10 | 25.24646 | -110.49329 | 34956 ft | 490 kts | 141° |
| 2026-04-24 19:10 | 25.19929 | -110.43882 | 34951 ft | 491 kts | 141° |
| 2026-04-24 19:11 | 25.15211 | -110.38441 | 34955 ft | 491 kts | 141° |
| 2026-04-24 19:11 | 25.10481 | -110.32993 | 34937 ft | 491 kts | 140° |
| 2026-04-24 19:12 | 25.05750 | -110.27549 | 34948 ft | 491 kts | 140° |
| 2026-04-24 19:12 | 25.01029 | -110.22123 | 34952 ft | 490 kts | 140° |
| 2026-04-24 19:13 | 24.97101 | -110.17613 | 34953 ft | 490 kts | 140° |
| 2026-04-24 19:13 | 24.93969 | -110.14022 | 34762 ft | 494 kts | 140° |
| 2026-04-24 19:13 | 24.91581 | -110.11287 | 34318 ft | 494 kts | 140° |
| 2026-04-24 19:13 | 24.89208 | -110.08567 | 33815 ft | 490 kts | 140° |
| 2026-04-24 19:14 | 24.86855 | -110.05869 | 33264 ft | 486 kts | 140° |
| 2026-04-24 19:14 | 24.84524 | -110.03197 | 32736 ft | 481 kts | 140° |
| 2026-04-24 19:14 | 24.82219 | -110.00558 | 32239 ft | 476 kts | 140° |
| 2026-04-24 19:14 | 24.79925 | -109.97935 | 31748 ft | 472 kts | 140° |
| 2026-04-24 19:15 | 24.77655 | -109.95342 | 31252 ft | 468 kts | 140° |
| 2026-04-24 19:15 | 24.75406 | -109.92775 | 30779 ft | 464 kts | 140° |
| 2026-04-24 19:15 | 24.73171 | -109.90227 | 30298 ft | 461 kts | 140° |
| 2026-04-24 19:15 | 24.70950 | -109.87695 | 29755 ft | 458 kts | 140° |
| 2026-04-24 19:16 | 24.66577 | -109.82713 | 28720 ft | 451 kts | 140° |
| 2026-04-24 19:16 | 24.64412 | -109.80247 | 28233 ft | 446 kts | 140° |
| 2026-04-24 19:16 | 24.62262 | -109.77802 | 27749 ft | 442 kts | 140° |
| 2026-04-24 19:17 | 24.60133 | -109.75381 | 27254 ft | 439 kts | 139° |
| 2026-04-24 19:17 | 24.58017 | -109.72975 | 26798 ft | 435 kts | 139° |
| 2026-04-24 19:17 | 24.55924 | -109.70598 | 26331 ft | 431 kts | 139° |
| 2026-04-24 19:17 | 24.53844 | -109.68236 | 25882 ft | 428 kts | 139° |
| 2026-04-24 19:18 | 24.51778 | -109.65893 | 25426 ft | 425 kts | 139° |
| 2026-04-24 19:18 | 24.49726 | -109.63565 | 24961 ft | 423 kts | 139° |
| 2026-04-24 19:18 | 24.47685 | -109.61252 | 24492 ft | 421 kts | 139° |
| 2026-04-24 19:18 | 24.45655 | -109.58951 | 24027 ft | 419 kts | 139° |
| 2026-04-24 19:19 | 24.43632 | -109.56660 | 23552 ft | 417 kts | 139° |
| 2026-04-24 19:19 | 24.41614 | -109.54375 | 23022 ft | 415 kts | 139° |
| 2026-04-24 19:19 | 24.39636 | -109.52136 | 22547 ft | 412 kts | 138° |
| 2026-04-24 19:19 | 24.37646 | -109.49884 | 22085 ft | 409 kts | 138° |
| 2026-04-24 19:20 | 24.35673 | -109.47654 | 21626 ft | 406 kts | 138° |
| 2026-04-24 19:20 | 24.33678 | -109.45495 | 21161 ft | 399 kts | 146° |
| 2026-04-24 19:20 | 24.31287 | -109.44065 | 20714 ft | 385 kts | 168° |
| 2026-04-24 19:20 | 24.28718 | -109.43556 | 20506 ft | 367 kts | 182° |
| 2026-04-24 19:21 | 24.26240 | -109.43773 | 20220 ft | 352 kts | 196° |
| 2026-04-24 19:21 | 24.23855 | -109.44352 | 19788 ft | 350 kts | 198° |
| 2026-04-24 19:21 | 24.21486 | -109.44987 | 19307 ft | 350 kts | 198° |
| 2026-04-24 19:21 | 24.19153 | -109.45619 | 18885 ft | 350 kts | 198° |
| 2026-04-24 19:22 | 24.17558 | -109.46047 | 18611 ft | 349 kts | 198° |
| 2026-04-24 19:22 | 24.14438 | -109.46869 | 18107 ft | 346 kts | 198° |
| 2026-04-24 19:22 | 24.12096 | -109.47476 | 17678 ft | 344 kts | 197° |
| 2026-04-24 19:22 | 24.09769 | -109.48074 | 17264 ft | 342 kts | 197° |
| 2026-04-24 19:23 | 24.07459 | -109.48665 | 16863 ft | 340 kts | 197° |
| 2026-04-24 19:23 | 24.05163 | -109.49251 | 16462 ft | 338 kts | 197° |
| 2026-04-24 19:23 | 24.02876 | -109.49835 | 16044 ft | 336 kts | 197° |
| 2026-04-24 19:23 | 24.00598 | -109.50416 | 15637 ft | 335 kts | 197° |
| 2026-04-24 19:24 | 23.98327 | -109.50995 | 15244 ft | 334 kts | 197° |
| 2026-04-24 19:24 | 23.96071 | -109.51569 | 14869 ft | 332 kts | 197° |
| 2026-04-24 19:24 | 23.93860 | -109.52132 | 14503 ft | 330 kts | 197° |
| 2026-04-24 19:24 | 23.91596 | -109.52708 | 14127 ft | 329 kts | 197° |
| 2026-04-24 19:25 | 23.89398 | -109.53339 | 13763 ft | 326 kts | 201° |
| 2026-04-24 19:25 | 23.87277 | -109.54099 | 13362 ft | 324 kts | 202° |
| 2026-04-24 19:25 | 23.85158 | -109.54903 | 12970 ft | 322 kts | 203° |
| 2026-04-24 19:25 | 23.83054 | -109.55708 | 12582 ft | 320 kts | 202° |
| 2026-04-24 19:26 | 23.80954 | -109.56506 | 12193 ft | 318 kts | 202° |
| 2026-04-24 19:26 | 23.78865 | -109.57292 | 11817 ft | 317 kts | 202° |
| 2026-04-24 19:26 | 23.76783 | -109.58070 | 11486 ft | 314 kts | 202° |
| 2026-04-24 19:26 | 23.74745 | -109.58826 | 11389 ft | 303 kts | 202° |
| 2026-04-24 19:27 | 23.72786 | -109.59550 | 11275 ft | 293 kts | 202° |
| 2026-04-24 19:27 | 23.70875 | -109.60256 | 11036 ft | 288 kts | 201° |
| 2026-04-24 19:27 | 23.68974 | -109.60959 | 10719 ft | 288 kts | 201° |
| 2026-04-24 19:27 | 23.67078 | -109.61659 | 10394 ft | 288 kts | 201° |
| 2026-04-24 19:28 | 23.65190 | -109.62356 | 10075 ft | 284 kts | 201° |
| 2026-04-24 19:28 | 23.63321 | -109.63045 | 9592 ft | 284 kts | 201° |
| 2026-04-24 19:28 | 23.61433 | -109.63741 | 9227 ft | 286 kts | 201° |
| 2026-04-24 19:28 | 23.59568 | -109.64428 | 9016 ft | 281 kts | 201° |
| 2026-04-24 19:29 | 23.55841 | -109.65800 | 8002 ft | 286 kts | 201° |
| 2026-04-24 19:29 | 23.53978 | -109.66485 | 7627 ft | 280 kts | 200° |
| 2026-04-24 19:29 | 23.52151 | -109.67156 | 7263 ft | 274 kts | 201° |
| 2026-04-24 19:30 | 23.50384 | -109.67806 | 6919 ft | 268 kts | 201° |
| 2026-04-24 19:30 | 23.48632 | -109.68450 | 6584 ft | 263 kts | 200° |
| 2026-04-24 19:30 | 23.46916 | -109.69081 | 6237 ft | 258 kts | 200° |
| 2026-04-24 19:30 | 23.45233 | -109.69699 | 5903 ft | 253 kts | 200° |
| 2026-04-24 19:31 | 23.43575 | -109.70308 | 5579 ft | 252 kts | 200° |
| 2026-04-24 19:31 | 23.41916 | -109.70917 | 5285 ft | 250 kts | 200° |
| 2026-04-24 19:31 | 23.40277 | -109.71519 | 4960 ft | 246 kts | 200° |
| 2026-04-24 19:31 | 23.38667 | -109.72111 | 4642 ft | 242 kts | 199° |
| 2026-04-24 19:32 | 23.37091 | -109.72689 | 4319 ft | 234 kts | 199° |
| 2026-04-24 19:32 | 23.35583 | -109.73241 | 4038 ft | 224 kts | 199° |
| 2026-04-24 19:32 | 23.34144 | -109.73769 | 3768 ft | 212 kts | 198° |
| 2026-04-24 19:32 | 23.33220 | -109.74037 | 3600 ft | 204 kts | 186° |
| 2026-04-24 19:33 | 23.31846 | -109.73998 | 3386 ft | 194 kts | 174° |
| 2026-04-24 19:33 | 23.30110 | -109.73775 | 3059 ft | 186 kts | 174° |
| 2026-04-24 19:33 | 23.28849 | -109.73627 | 2812 ft | 177 kts | 173° |
| 2026-04-24 19:33 | 23.27662 | -109.73493 | 2561 ft | 165 kts | 173° |
| 2026-04-24 19:34 | 23.26897 | -109.73406 | 2442 ft | 163 kts | 173° |
| 2026-04-24 19:34 | 23.25774 | -109.73277 | 2243 ft | 166 kts | 173° |
| 2026-04-24 19:34 | 23.24639 | -109.73146 | 2013 ft | 162 kts | 172° |
| 2026-04-24 19:34 | 23.23512 | -109.73018 | 1793 ft | 164 kts | 173° |
| 2026-04-24 19:35 | 23.22391 | -109.72891 | 1570 ft | 160 kts | 172° |
| 2026-04-24 19:35 | 23.21316 | -109.72768 | 1361 ft | 149 kts | 171° |
| 2026-04-24 19:35 | 23.20312 | -109.72653 | 1216 ft | 146 kts | 171° |
| 2026-04-24 19:35 | 23.19287 | -109.72536 | 1011 ft | 150 kts | 172° |
| 2026-04-24 19:36 | 23.18269 | -109.72420 | 810 ft | 145 kts | 172° |
| 2026-04-24 19:36 | 23.17293 | -109.72307 | 599 ft | 139 kts | 173° |
| 2026-04-24 19:36 | 23.16330 | -109.72203 | 409 ft | 135 kts | 172° |
| 2026-04-24 19:36 | 23.15476 | -109.72104 | 362 ft | 100 kts | 174° |
| 2026-04-24 19:37 | 23.15040 | -109.72038 | 351 ft | 39 kts | 151° |
| 2026-04-24 19:37 | 23.14884 | -109.71923 | 346 ft | 21 kts | 142° |
| 2026-04-24 19:37 | 23.14818 | -109.71849 | 336 ft | 9 kts | 78° |
| 2026-04-24 19:37 | 23.14875 | -109.71833 | 354 ft | 9 kts | 356° |
| 2026-04-24 19:38 | 23.14936 | -109.71838 | 348 ft | 9 kts | 356° |
| 2026-04-24 19:38 | 23.14995 | -109.71845 | 347 ft | 8 kts | 352° |
| 2026-04-24 19:38 | 23.15052 | -109.71854 | 351 ft | 8 kts | 352° |
| 2026-04-24 19:38 | 23.15107 | -109.71860 | 350 ft | 8 kts | 356° |
| 2026-04-24 19:39 | 23.15162 | -109.71864 | 353 ft | 8 kts | 356° |
| 2026-04-24 19:39 | 23.15228 | -109.71872 | 358 ft | 10 kts | 352° |
| 2026-04-24 19:39 | 23.15300 | -109.71883 | 356 ft | 12 kts | 352° |
| 2026-04-24 19:39 | 23.15379 | -109.71892 | 359 ft | 12 kts | 355° |
| 2026-04-24 19:40 | 23.15458 | -109.71898 | 360 ft | 11 kts | 354° |
| 2026-04-24 19:40 | 23.15529 | -109.71906 | 364 ft | 2 kts | 353° |
| 2026-04-24 19:40 | 23.15535 | -109.71907 | 364 ft | 0 kts | 353° |
| 2026-04-24 19:40 | 23.15534 | -109.71907 | 364 ft | 0 kts | 353° |
| 2026-04-24 19:41 | 23.15535 | -109.71907 | 364 ft | 0 kts | 353° |
| 2026-04-24 19:41 | 23.15570 | -109.71911 | 364 ft | 10 kts | 353° |
| 2026-04-24 19:41 | 23.15662 | -109.71923 | 365 ft | 17 kts | 353° |
| 2026-04-24 19:42 | 23.15800 | -109.71938 | 366 ft | 23 kts | 356° |
| 2026-04-24 19:42 | 23.15859 | -109.71884 | 364 ft | 12 kts | 89° |
| 2026-04-24 19:42 | 23.15863 | -109.71804 | 364 ft | 5 kts | 82° |
| 2026-04-24 19:42 | 23.15864 | -109.71797 | 368 ft | 0 kts | 82° |
| 2026-04-24 19:44 | 23.15864 | -109.71798 | 368 ft | 0 kts | 82° |
| 2026-04-24 19:52 | 23.15864 | -109.71799 | 368 ft | 0 kts | 82° |